Zottegem, Belgium
Current Conditions -  °F | °C
As of 3:20 AM on Friday 19 Dec 2014 (Local Time) from EBBR Reporting Station
Moderate Rain Moderate Rain  
Wind Chill: 11°   Ceiling: 1000
Heat Index: 11°   Visibility: 4mi
Dew Point:   Wind: 22mph
Humidity: 88%   Direction: 230°SW
Pressure: 29.91"   Gusts: 35mph
Location:  50.87°N, 3.81°E
Report Text: EBBR 190220Z 23019G30KT 7000 RA FEW007 BKN010 11/09 Q1013 BECMG -RA
Loading
Personal Weather Stations






























Interactive Weather Map New forecast layout! Learn more

10-Day Weather Forecast

Advertisements
Track Severe Weather on mobile